sensor_id;sensor_type;location;lat;lon;timestamp;pressure;altitude;pressure_sealevel;temperature;humidity
70909;BME280;58554;52.006;5.926;2023-01-26T00:02:25;101691.13;;;-2.17;90.09
70909;BME280;58554;52.006;5.926;2023-01-26T00:04:52;101684.25;;;-2.16;90.17
70909;BME280;58554;52.006;5.926;2023-01-26T00:07:21;101685.13;;;-2.14;90.18
70909;BME280;58554;52.006;5.926;2023-01-26T00:09:48;101677.34;;;-2.16;90.30
70909;BME280;58554;52.006;5.926;2023-01-26T00:12:14;101679.06;;;-2.15;90.31
70909;BME280;58554;52.006;5.926;2023-01-26T00:14:41;101667.84;;;-2.15;90.14
70909;BME280;58554;52.006;5.926;2023-01-26T00:17:07;101679.13;;;-2.12;90.18
70909;BME280;58554;52.006;5.926;2023-01-26T00:19:34;101673.06;;;-2.12;90.12
70909;BME280;58554;52.006;5.926;2023-01-26T00:22:00;101659.22;;;-2.13;89.93
70909;BME280;58554;52.006;5.926;2023-01-26T00:24:29;101665.28;;;-2.11;90.19
70909;BME280;58554;52.006;5.926;2023-01-26T00:26:56;101668.75;;;-2.12;90.38
70909;BME280;58554;52.006;5.926;2023-01-26T00:29:22;101652.31;;;-2.14;90.47
70909;BME280;58554;52.006;5.926;2023-01-26T00:31:49;101656.63;;;-2.13;90.34
70909;BME280;58554;52.006;5.926;2023-01-26T00:34:15;101666.13;;;-2.13;90.31
70909;BME280;58554;52.006;5.926;2023-01-26T00:36:42;101654.03;;;-2.16;90.63
70909;BME280;58554;52.006;5.926;2023-01-26T00:39:09;101660.88;;;-2.19;90.86
70909;BME280;58554;52.006;5.926;2023-01-26T00:41:38;101651.41;;;-2.20;91.00
70909;BME280;58554;52.006;5.926;2023-01-26T00:44:05;101646.19;;;-2.22;90.99
70909;BME280;58554;52.006;5.926;2023-01-26T00:46:31;101634.16;;;-2.18;90.74
70909;BME280;58554;52.006;5.926;2023-01-26T00:48:58;101635.88;;;-2.17;90.65
70909;BME280;58554;52.006;5.926;2023-01-26T00:51:24;101634.13;;;-2.17;90.89
70909;BME280;58554;52.006;5.926;2023-01-26T00:53:51;101630.66;;;-2.19;90.94
70909;BME280;58554;52.006;5.926;2023-01-26T00:56:18;101640.22;;;-2.16;90.82
70909;BME280;58554;52.006;5.926;2023-01-26T00:58:47;101645.38;;;-2.15;90.45
70909;BME280;58554;52.006;5.926;2023-01-26T01:01:13;101649.75;;;-2.12;90.64
70909;BME280;58554;52.006;5.926;2023-01-26T01:03:40;101652.34;;;-2.11;90.21
70909;BME280;58554;52.006;5.926;2023-01-26T01:06:06;101642.84;;;-2.09;90.40
70909;BME280;58554;52.006;5.926;2023-01-26T01:08:33;101641.13;;;-2.07;90.46
70909;BME280;58554;52.006;5.926;2023-01-26T01:11:04;101644.59;;;-2.08;90.32
70909;BME280;58554;52.006;5.926;2023-01-26T01:13:32;101640.25;;;-2.09;90.47
70909;BME280;58554;52.006;5.926;2023-01-26T01:16:04;101635.13;;;-2.06;90.22
70909;BME280;58554;52.006;5.926;2023-01-26T01:18:31;101638.63;;;-2.02;90.17
70909;BME280;58554;52.006;5.926;2023-01-26T01:20:57;101630.00;;;-1.99;90.04
70909;BME280;58554;52.006;5.926;2023-01-26T01:23:30;101629.97;;;-1.98;89.99
70909;BME280;58554;52.006;5.926;2023-01-26T01:25:57;101627.41;;;-1.99;90.25
70909;BME280;58554;52.006;5.926;2023-01-26T01:28:25;101637.75;;;-1.99;90.32
70909;BME280;58554;52.006;5.926;2023-01-26T01:30:52;101630.84;;;-1.99;90.15
70909;BME280;58554;52.006;5.926;2023-01-26T01:33:21;101633.47;;;-1.97;89.96
70909;BME280;58554;52.006;5.926;2023-01-26T01:35:55;101621.38;;;-1.97;89.93
70909;BME280;58554;52.006;5.926;2023-01-26T01:38:23;101630.03;;;-1.93;90.12
70909;BME280;58554;52.006;5.926;2023-01-26T01:40:50;101623.97;;;-1.95;90.37
70909;BME280;58554;52.006;5.926;2023-01-26T01:43:17;101623.09;;;-1.97;90.38
70909;BME280;58554;52.006;5.926;2023-01-26T01:45:45;101625.66;;;-2.00;90.48
70909;BME280;58554;52.006;5.926;2023-01-26T01:48:22;101626.53;;;-2.00;90.45
70909;BME280;58554;52.006;5.926;2023-01-26T01:50:55;101626.50;;;-2.02;90.52
70909;BME280;58554;52.006;5.926;2023-01-26T01:53:28;101618.72;;;-2.03;90.44
70909;BME280;58554;52.006;5.926;2023-01-26T01:56:01;101615.28;;;-2.04;90.77
70909;BME280;58554;52.006;5.926;2023-01-26T01:58:36;101605.75;;;-2.05;90.98
70909;BME280;58554;52.006;5.926;2023-01-26T02:01:06;101619.59;;;-2.04;90.74
70909;BME280;58554;52.006;5.926;2023-01-26T02:03:36;101610.09;;;-2.04;90.95
70909;BME280;58554;52.006;5.926;2023-01-26T02:06:08;101606.63;;;-2.03;90.88
70909;BME280;58554;52.006;5.926;2023-01-26T02:08:42;101609.22;;;-2.01;90.93
70909;BME280;58554;52.006;5.926;2023-01-26T02:11:12;101613.59;;;-2.00;91.00
70909;BME280;58554;52.006;5.926;2023-01-26T02:13:43;101601.44;;;-2.03;90.79
70909;BME280;58554;52.006;5.926;2023-01-26T02:16:13;101608.38;;;-1.98;90.67
70909;BME280;58554;52.006;5.926;2023-01-26T02:18:44;101601.50;;;-1.96;90.64
70909;BME280;58554;52.006;5.926;2023-01-26T02:21:14;101599.78;;;-1.97;90.72
70909;BME280;58554;52.006;5.926;2023-01-26T02:23:50;101598.06;;;-1.95;90.59
70909;BME280;58554;52.006;5.926;2023-01-26T02:26:30;101600.63;;;-1.94;90.59
70909;BME280;58554;52.006;5.926;2023-01-26T02:28:59;101592.88;;;-1.95;90.52
70909;BME280;58554;52.006;5.926;2023-01-26T02:31:27;101604.94;;;-1.96;90.75
70909;BME280;58554;52.006;5.926;2023-01-26T02:33:54;101594.59;;;-1.94;90.58
70909;BME280;58554;52.006;5.926;2023-01-26T02:36:22;101593.75;;;-1.92;90.65
70909;BME280;58554;52.006;5.926;2023-01-26T02:38:59;101598.09;;;-1.91;90.52
70909;BME280;58554;52.006;5.926;2023-01-26T02:41:43;101598.09;;;-1.88;90.64
70909;BME280;58554;52.006;5.926;2023-01-26T02:44:12;101593.78;;;-1.86;90.59
70909;BME280;58554;52.006;5.926;2023-01-26T02:46:40;101590.38;;;-1.83;90.43
70909;BME280;58554;52.006;5.926;2023-01-26T02:49:07;101596.41;;;-1.83;90.42
70909;BME280;58554;52.006;5.926;2023-01-26T02:51:33;101599.00;;;-1.84;90.62
70909;BME280;58554;52.006;5.926;2023-01-26T02:54:00;101598.13;;;-1.86;90.42
70909;BME280;58554;52.006;5.926;2023-01-26T02:56:26;101600.72;;;-1.86;90.41
70909;BME280;58554;52.006;5.926;2023-01-26T02:58:55;101599.81;;;-1.88;90.51
70909;BME280;58554;52.006;5.926;2023-01-26T03:01:22;101594.63;;;-1.88;90.45
70909;BME280;58554;52.006;5.926;2023-01-26T03:03:48;101601.56;;;-1.89;90.58
70909;BME280;58554;52.006;5.926;2023-01-26T03:06:15;101602.44;;;-1.87;90.59
70909;BME280;58554;52.006;5.926;2023-01-26T03:08:42;101596.34;;;-1.90;90.39
70909;BME280;58554;52.006;5.926;2023-01-26T03:11:08;101601.53;;;-1.90;90.46
70909;BME280;58554;52.006;5.926;2023-01-26T03:13:35;101593.75;;;-1.90;90.46
70909;BME280;58554;52.006;5.926;2023-01-26T03:16:05;101602.41;;;-1.88;90.39
70909;BME280;58554;52.006;5.926;2023-01-26T03:18:34;101596.38;;;-1.86;90.37
70909;BME280;58554;52.006;5.926;2023-01-26T03:21:03;101598.16;;;-1.83;90.12
70909;BME280;58554;52.006;5.926;2023-01-26T03:23:32;101599.88;;;-1.80;90.18
70909;BME280;58554;52.006;5.926;2023-01-26T03:25:58;101589.53;;;-1.79;90.22
70909;BME280;58554;52.006;5.926;2023-01-26T03:28:25;101594.72;;;-1.76;90.21
70909;BME280;58554;52.006;5.926;2023-01-26T03:30:54;101584.38;;;-1.76;90.42
70909;BME280;58554;52.006;5.926;2023-01-26T03:33:25;101585.22;;;-1.75;90.11
70909;BME280;58554;52.006;5.926;2023-01-26T03:35:53;101593.00;;;-1.74;90.16
70909;BME280;58554;52.006;5.926;2023-01-26T03:38:20;101597.38;;;-1.73;90.13
70909;BME280;58554;52.006;5.926;2023-01-26T03:40:46;101592.16;;;-1.71;89.96
70909;BME280;58554;52.006;5.926;2023-01-26T03:43:13;101595.66;;;-1.68;90.03
70909;BME280;58554;52.006;5.926;2023-01-26T03:45:39;101589.63;;;-1.67;90.15
70909;BME280;58554;52.006;5.926;2023-01-26T03:48:07;101588.75;;;-1.66;90.29
70909;BME280;58554;52.006;5.926;2023-01-26T03:50:37;101593.91;;;-1.67;89.99
70909;BME280;58554;52.006;5.926;2023-01-26T03:53:12;101593.06;;;-1.66;90.02
70909;BME280;58554;52.006;5.926;2023-01-26T03:55:40;101588.78;;;-1.64;90.24
70909;BME280;58554;52.006;5.926;2023-01-26T03:58:06;101592.22;;;-1.64;90.15
70909;BME280;58554;52.006;5.926;2023-01-26T04:00:33;101592.25;;;-1.62;89.92
70909;BME280;58554;52.006;5.926;2023-01-26T04:02:59;101590.50;;;-1.62;89.99
70909;BME280;58554;52.006;5.926;2023-01-26T04:05:26;101593.94;;;-1.63;89.91
70909;BME280;58554;52.006;5.926;2023-01-26T04:08:01;101588.75;;;-1.63;89.85
70909;BME280;58554;52.006;5.926;2023-01-26T04:10:28;101600.03;;;-1.62;90.21
70909;BME280;58554;52.006;5.926;2023-01-26T04:12:54;101600.00;;;-1.61;90.10
70909;BME280;58554;52.006;5.926;2023-01-26T04:15:21;101591.41;;;-1.55;90.09
70909;BME280;58554;52.006;5.926;2023-01-26T04:17:47;101598.31;;;-1.52;90.03
70909;BME280;58554;52.006;5.926;2023-01-26T04:20:14;101594.88;;;-1.51;90.15
70909;BME280;58554;52.006;5.926;2023-01-26T04:22:41;101592.31;;;-1.48;89.87
70909;BME280;58554;52.006;5.926;2023-01-26T04:25:13;101586.28;;;-1.47;90.07
70909;BME280;58554;52.006;5.926;2023-01-26T04:27:43;101582.84;;;-1.43;90.10
70909;BME280;58554;52.006;5.926;2023-01-26T04:30:11;101589.75;;;-1.42;89.95
70909;BME280;58554;52.006;5.926;2023-01-26T04:32:39;101585.44;;;-1.40;89.93
70909;BME280;58554;52.006;5.926;2023-01-26T04:35:08;101587.19;;;-1.39;89.84
70909;BME280;58554;52.006;5.926;2023-01-26T04:37:35;101583.72;;;-1.39;89.81
70909;BME280;58554;52.006;5.926;2023-01-26T04:40:02;101586.31;;;-1.38;89.95
70909;BME280;58554;52.006;5.926;2023-01-26T04:42:32;101584.59;;;-1.39;89.68
70909;BME280;58554;52.006;5.926;2023-01-26T04:44:59;101585.44;;;-1.38;89.81
70909;BME280;58554;52.006;5.926;2023-01-26T04:47:25;101587.19;;;-1.37;89.85
70909;BME280;58554;52.006;5.926;2023-01-26T04:49:52;101575.06;;;-1.38;89.75
70909;BME280;58554;52.006;5.926;2023-01-26T04:52:19;101582.88;;;-1.37;89.84
70909;BME280;58554;52.006;5.926;2023-01-26T04:54:45;101585.47;;;-1.32;89.96
70909;BME280;58554;52.006;5.926;2023-01-26T04:57:11;101579.41;;;-1.34;89.93
70909;BME280;58554;52.006;5.926;2023-01-26T04:59:41;101583.75;;;-1.35;89.82
70909;BME280;58554;52.006;5.926;2023-01-26T05:02:08;101577.69;;;-1.34;89.55
70909;BME280;58554;52.006;5.926;2023-01-26T05:04:35;101575.13;;;-1.31;90.08
70909;BME280;58554;52.006;5.926;2023-01-26T05:07:02;101574.28;;;-1.27;89.96
70909;BME280;58554;52.006;5.926;2023-01-26T05:09:29;101563.00;;;-1.27;89.76
70909;BME280;58554;52.006;5.926;2023-01-26T05:11:55;101567.34;;;-1.28;89.69
70909;BME280;58554;52.006;5.926;2023-01-26T05:14:22;101567.34;;;-1.28;89.79
70909;BME280;58554;52.006;5.926;2023-01-26T05:16:51;101573.38;;;-1.27;89.75
70909;BME280;58554;52.006;5.926;2023-01-26T05:19:17;101562.16;;;-1.28;89.57
70909;BME280;58554;52.006;5.926;2023-01-26T05:21:44;101576.84;;;-1.25;89.99
70909;BME280;58554;52.006;5.926;2023-01-26T05:24:10;101569.97;;;-1.25;89.92
70909;BME280;58554;52.006;5.926;2023-01-26T05:26:37;101569.97;;;-1.25;89.90
70909;BME280;58554;52.006;5.926;2023-01-26T05:29:03;101563.03;;;-1.24;90.06
70909;BME280;58554;52.006;5.926;2023-01-26T05:31:30;101567.34;;;-1.23;89.97
70909;BME280;58554;52.006;5.926;2023-01-26T05:33:59;101565.66;;;-1.23;89.96
70909;BME280;58554;52.006;5.926;2023-01-26T05:36:26;101563.91;;;-1.21;90.08
70909;BME280;58554;52.006;5.926;2023-01-26T05:38:52;101565.63;;;-1.19;89.88
70909;BME280;58554;52.006;5.926;2023-01-26T05:41:19;101569.97;;;-1.20;89.83
70909;BME280;58554;52.006;5.926;2023-01-26T05:43:45;101562.19;;;-1.18;90.08
70909;BME280;58554;52.006;5.926;2023-01-26T05:46:12;101565.66;;;-1.16;89.78
70909;BME280;58554;52.006;5.926;2023-01-26T05:48:38;101560.47;;;-1.16;89.85
70909;BME280;58554;52.006;5.926;2023-01-26T05:51:07;101557.00;;;-1.17;89.95
70909;BME280;58554;52.006;5.926;2023-01-26T05:53:34;101555.28;;;-1.16;89.97
70909;BME280;58554;52.006;5.926;2023-01-26T05:56:00;101563.06;;;-1.16;89.95
70909;BME280;58554;52.006;5.926;2023-01-26T05:58:27;101559.63;;;-1.14;89.83
70909;BME280;58554;52.006;5.926;2023-01-26T06:00:53;101567.41;;;-1.14;89.70
70909;BME280;58554;52.006;5.926;2023-01-26T06:03:22;101571.72;;;-1.11;89.79
70909;BME280;58554;52.006;5.926;2023-01-26T06:05:53;101575.19;;;-1.09;89.69
70909;BME280;58554;52.006;5.926;2023-01-26T06:08:23;101583.88;;;-1.10;89.95
70909;BME280;58554;52.006;5.926;2023-01-26T06:10:49;101582.13;;;-1.05;89.94
70909;BME280;58554;52.006;5.926;2023-01-26T06:13:16;101577.81;;;-1.06;90.00
70909;BME280;58554;52.006;5.926;2023-01-26T06:15:42;101577.81;;;-1.06;89.85
70909;BME280;58554;52.006;5.926;2023-01-26T06:18:09;101573.50;;;-1.06;89.80
70909;BME280;58554;52.006;5.926;2023-01-26T06:20:35;101579.53;;;-1.05;89.83
70909;BME280;58554;52.006;5.926;2023-01-26T06:23:03;101583.00;;;-1.05;89.72
70909;BME280;58554;52.006;5.926;2023-01-26T06:25:33;101576.09;;;-1.03;90.10
70909;BME280;58554;52.006;5.926;2023-01-26T06:28:00;101576.09;;;-1.01;89.99
70909;BME280;58554;52.006;5.926;2023-01-26T06:30:28;101576.09;;;-0.99;89.84
70909;BME280;58554;52.006;5.926;2023-01-26T06:32:55;101576.97;;;-0.99;89.77
70909;BME280;58554;52.006;5.926;2023-01-26T06:35:23;101581.31;;;-0.95;89.73
70909;BME280;58554;52.006;5.926;2023-01-26T06:37:49;101583.91;;;-0.95;89.87
70909;BME280;58554;52.006;5.926;2023-01-26T06:40:18;101589.09;;;-0.95;90.00
70909;BME280;58554;52.006;5.926;2023-01-26T06:42:51;101584.75;;;-0.94;89.76
70909;BME280;58554;52.006;5.926;2023-01-26T06:45:18;101588.22;;;-0.94;90.13
70909;BME280;58554;52.006;5.926;2023-01-26T06:47:46;101591.69;;;-0.92;90.10
70909;BME280;58554;52.006;5.926;2023-01-26T06:50:13;101594.31;;;-0.89;90.11
70909;BME280;58554;52.006;5.926;2023-01-26T06:52:45;101601.22;;;-0.88;90.08
70909;BME280;58554;52.006;5.926;2023-01-26T06:55:19;101596.91;;;-0.87;90.21
70909;BME280;58554;52.006;5.926;2023-01-26T06:57:52;101605.56;;;-0.87;90.04
70909;BME280;58554;52.006;5.926;2023-01-26T07:00:21;101601.22;;;-0.86;89.93
70909;BME280;58554;52.006;5.926;2023-01-26T07:02:48;101597.78;;;-0.85;90.11
70909;BME280;58554;52.006;5.926;2023-01-26T07:05:16;101602.97;;;-0.85;90.15
70909;BME280;58554;52.006;5.926;2023-01-26T07:07:43;101602.09;;;-0.86;90.20
70909;BME280;58554;52.006;5.926;2023-01-26T07:10:11;101607.28;;;-0.86;90.14
70909;BME280;58554;52.006;5.926;2023-01-26T07:12:38;101607.31;;;-0.87;90.29
70909;BME280;58554;52.006;5.926;2023-01-26T07:15:10;101603.81;;;-0.86;90.00
70909;BME280;58554;52.006;5.926;2023-01-26T07:17:38;101608.16;;;-0.87;90.33
70909;BME280;58554;52.006;5.926;2023-01-26T07:20:06;101602.09;;;-0.86;90.16
70909;BME280;58554;52.006;5.926;2023-01-26T07:22:33;101605.56;;;-0.87;90.27
70909;BME280;58554;52.006;5.926;2023-01-26T07:25:00;101602.13;;;-0.87;90.28
70909;BME280;58554;52.006;5.926;2023-01-26T07:27:26;101604.69;;;-0.86;90.46
70909;BME280;58554;52.006;5.926;2023-01-26T07:29:53;101609.91;;;-0.87;90.34
70909;BME280;58554;52.006;5.926;2023-01-26T07:32:22;101604.69;;;-0.86;90.48
70909;BME280;58554;52.006;5.926;2023-01-26T07:34:48;101616.81;;;-0.85;90.47
70909;BME280;58554;52.006;5.926;2023-01-26T07:37:15;101622.88;;;-0.83;90.24
70909;BME280;58554;52.006;5.926;2023-01-26T07:39:41;101613.38;;;-0.85;90.24
70909;BME280;58554;52.006;5.926;2023-01-26T07:42:08;101611.63;;;-0.85;90.67
70909;BME280;58554;52.006;5.926;2023-01-26T07:44:35;101611.66;;;-0.83;90.43
70909;BME280;58554;52.006;5.926;2023-01-26T07:47:02;101619.41;;;-0.82;90.56
70909;BME280;58554;52.006;5.926;2023-01-26T07:49:31;101628.94;;;-0.77;90.71
70909;BME280;58554;52.006;5.926;2023-01-26T07:51:57;101628.09;;;-0.76;90.68
70909;BME280;58554;52.006;5.926;2023-01-26T07:54:24;101617.72;;;-0.76;90.44
70909;BME280;58554;52.006;5.926;2023-01-26T07:56:50;101622.91;;;-0.76;90.69
70909;BME280;58554;52.006;5.926;2023-01-26T07:59:17;101626.38;;;-0.74;90.52
70909;BME280;58554;52.006;5.926;2023-01-26T08:01:44;101616.00;;;-0.74;90.67
70909;BME280;58554;52.006;5.926;2023-01-26T08:04:11;101626.38;;;-0.74;90.74
70909;BME280;58554;52.006;5.926;2023-01-26T08:06:40;101631.56;;;-0.71;90.93
70909;BME280;58554;52.006;5.926;2023-01-26T08:09:07;101632.47;;;-0.71;90.78
70909;BME280;58554;52.006;5.926;2023-01-26T08:11:33;101637.66;;;-0.71;90.71
70909;BME280;58554;52.006;5.926;2023-01-26T08:14:00;101631.59;;;-0.68;90.80
70909;BME280;58554;52.006;5.926;2023-01-26T08:16:27;101630.72;;;-0.67;90.78
70909;BME280;58554;52.006;5.926;2023-01-26T08:18:54;101640.25;;;-0.63;90.83
70909;BME280;58554;52.006;5.926;2023-01-26T08:21:20;101638.50;;;-0.63;90.80
70909;BME280;58554;52.006;5.926;2023-01-26T08:23:50;101642.00;;;-0.62;90.80
70909;BME280;58554;52.006;5.926;2023-01-26T08:26:18;101641.13;;;-0.61;90.71
70909;BME280;58554;52.006;5.926;2023-01-26T08:28:45;101635.09;;;-0.60;90.95
70909;BME280;58554;52.006;5.926;2023-01-26T08:31:14;101635.09;;;-0.60;90.93
70909;BME280;58554;52.006;5.926;2023-01-26T08:33:42;101636.81;;;-0.57;90.86
70909;BME280;58554;52.006;5.926;2023-01-26T08:36:11;101642.03;;;-0.56;90.88
70909;BME280;58554;52.006;5.926;2023-01-26T08:38:40;101639.44;;;-0.51;91.06
70909;BME280;58554;52.006;5.926;2023-01-26T08:41:10;101631.63;;;-0.48;91.22
70909;BME280;58554;52.006;5.926;2023-01-26T08:43:38;101634.25;;;-0.45;91.17
70909;BME280;58554;52.006;5.926;2023-01-26T08:46:05;101633.41;;;-0.41;91.17
70909;BME280;58554;52.006;5.926;2023-01-26T08:48:32;101636.00;;;-0.36;91.16
70909;BME280;58554;52.006;5.926;2023-01-26T08:51:00;101640.31;;;-0.34;91.08
70909;BME280;58554;52.006;5.926;2023-01-26T08:53:30;101642.94;;;-0.32;91.08
70909;BME280;58554;52.006;5.926;2023-01-26T08:56:00;101642.94;;;-0.31;91.34
70909;BME280;58554;52.006;5.926;2023-01-26T08:58:29;101642.94;;;-0.28;91.16
70909;BME280;58554;52.006;5.926;2023-01-26T09:00:56;101646.41;;;-0.24;91.38
70909;BME280;58554;52.006;5.926;2023-01-26T09:03:22;101635.13;;;-0.23;91.46
70909;BME280;58554;52.006;5.926;2023-01-26T09:05:49;101642.06;;;-0.19;91.27
70909;BME280;58554;52.006;5.926;2023-01-26T09:08:15;101643.84;;;-0.16;91.45
70909;BME280;58554;52.006;5.926;2023-01-26T09:10:42;101642.09;;;-0.14;91.22
70909;BME280;58554;52.006;5.926;2023-01-26T09:13:09;101643.84;;;-0.12;91.27
70909;BME280;58554;52.006;5.926;2023-01-26T09:15:38;101642.97;;;-0.09;91.42
70909;BME280;58554;52.006;5.926;2023-01-26T09:18:05;101655.09;;;-0.07;91.35
70909;BME280;58554;52.006;5.926;2023-01-26T09:20:32;101660.31;;;-0.05;91.37
70909;BME280;58554;52.006;5.926;2023-01-26T09:22:58;101654.25;;;-0.06;91.20
70909;BME280;58554;52.006;5.926;2023-01-26T09:25:25;101655.09;;;-0.07;91.23
70909;BME280;58554;52.006;5.926;2023-01-26T09:27:51;101656.84;;;-0.10;91.37
70909;BME280;58554;52.006;5.926;2023-01-26T09:30:18;101660.31;;;-0.08;91.19
70909;BME280;58554;52.006;5.926;2023-01-26T09:32:47;101655.09;;;-0.08;91.31
70909;BME280;58554;52.006;5.926;2023-01-26T09:35:14;101661.16;;;-0.08;91.37
70909;BME280;58554;52.006;5.926;2023-01-26T09:37:42;101658.59;;;-0.06;91.48
70909;BME280;58554;52.006;5.926;2023-01-26T09:40:15;101653.34;;;-0.05;91.39
70909;BME280;58554;52.006;5.926;2023-01-26T09:42:58;101658.56;;;-0.00;91.33
70909;BME280;58554;52.006;5.926;2023-01-26T09:45:40;101652.50;;;0.04;91.42
70909;BME280;58554;52.006;5.926;2023-01-26T09:48:29;101649.91;;;0.07;91.74
70909;BME280;58554;52.006;5.926;2023-01-26T09:51:09;101666.38;;;0.11;91.75
70909;BME280;58554;52.006;5.926;2023-01-26T09:53:46;101656.84;;;0.14;91.63
70909;BME280;58554;52.006;5.926;2023-01-26T09:56:20;101649.06;;;0.19;91.59
70909;BME280;58554;52.006;5.926;2023-01-26T09:58:53;101658.59;;;0.23;91.80
70909;BME280;58554;52.006;5.926;2023-01-26T10:01:30;101658.59;;;0.28;91.59
70909;BME280;58554;52.006;5.926;2023-01-26T10:04:13;101669.84;;;0.34;91.83
70909;BME280;58554;52.006;5.926;2023-01-26T10:06:53;101662.91;;;0.42;92.00
70909;BME280;58554;52.006;5.926;2023-01-26T10:09:24;101662.00;;;0.50;91.91
70909;BME280;58554;52.006;5.926;2023-01-26T10:11:56;101658.56;;;0.58;92.12
70909;BME280;58554;52.006;5.926;2023-01-26T10:14:30;101668.06;;;0.66;91.92
70909;BME280;58554;52.006;5.926;2023-01-26T10:17:03;101659.38;;;0.68;92.18
70909;BME280;58554;52.006;5.926;2023-01-26T10:19:38;101666.31;;;0.71;91.99
70909;BME280;58554;52.006;5.926;2023-01-26T10:22:14;101662.88;;;0.73;92.21
70909;BME280;58554;52.006;5.926;2023-01-26T10:24:47;101669.78;;;0.77;92.09
70909;BME280;58554;52.006;5.926;2023-01-26T10:27:15;101676.72;;;0.86;92.24
70909;BME280;58554;52.006;5.926;2023-01-26T10:29:42;101674.06;;;0.98;92.58
70909;BME280;58554;52.006;5.926;2023-01-26T10:32:12;101668.81;;;1.09;92.48
70909;BME280;58554;52.006;5.926;2023-01-26T10:34:43;101669.63;;;1.20;92.41
70909;BME280;58554;52.006;5.926;2023-01-26T10:37:18;101655.69;;;1.31;92.54
70909;BME280;58554;52.006;5.926;2023-01-26T10:40:04;101660.00;;;1.42;92.33
70909;BME280;58554;52.006;5.926;2023-01-26T10:42:34;101659.97;;;1.50;92.38
70909;BME280;58554;52.006;5.926;2023-01-26T10:45:05;101655.53;;;1.61;92.49
70909;BME280;58554;52.006;5.926;2023-01-26T10:48:01;101646.78;;;1.69;92.37
70909;BME280;58554;52.006;5.926;2023-01-26T10:50:33;101650.22;;;1.78;92.65
70909;BME280;58554;52.006;5.926;2023-01-26T10:53:01;101654.53;;;1.86;92.57
70909;BME280;58554;52.006;5.926;2023-01-26T10:55:30;101656.22;;;1.93;92.74
70909;BME280;58554;52.006;5.926;2023-01-26T10:57:58;101655.28;;;2.00;92.53
70909;BME280;58554;52.006;5.926;2023-01-26T11:00:28;101651.75;;;2.06;92.67
70909;BME280;58554;52.006;5.926;2023-01-26T11:03:03;101651.72;;;2.13;92.61
70909;BME280;58554;52.006;5.926;2023-01-26T11:05:42;101651.66;;;2.21;92.41
70909;BME280;58554;52.006;5.926;2023-01-26T11:08:31;101652.47;;;2.28;92.51
70909;BME280;58554;52.006;5.926;2023-01-26T11:10:59;101652.41;;;2.32;92.69
70909;BME280;58554;52.006;5.926;2023-01-26T11:13:27;101650.63;;;2.37;92.66
70909;BME280;58554;52.006;5.926;2023-01-26T11:16:02;101654.06;;;2.39;92.49
70909;BME280;58554;52.006;5.926;2023-01-26T11:18:45;101658.50;;;2.34;92.35
70909;BME280;58554;52.006;5.926;2023-01-26T11:21:27;101658.50;;;2.31;92.32
70909;BME280;58554;52.006;5.926;2023-01-26T11:24:02;101659.41;;;2.30;92.42
70909;BME280;58554;52.006;5.926;2023-01-26T11:30:02;101653.28;;;2.31;92.54
70909;BME280;58554;52.006;5.926;2023-01-26T11:32:53;101655.88;;;2.36;92.89
70909;BME280;58554;52.006;5.926;2023-01-26T11:35:34;101646.25;;;2.42;93.12
70909;BME280;58554;52.006;5.926;2023-01-26T11:38:37;101649.66;;;2.49;93.27
70909;BME280;58554;52.006;5.926;2023-01-26T11:41:22;101652.19;;;2.57;93.34
70909;BME280;58554;52.006;5.926;2023-01-26T11:44:14;101650.31;;;2.68;93.91
70909;BME280;58554;52.006;5.926;2023-01-26T11:47:15;101651.06;;;2.81;93.82
70909;BME280;58554;52.006;5.926;2023-01-26T11:50:05;101640.53;;;2.87;93.66
70909;BME280;58554;52.006;5.926;2023-01-26T11:53:01;101646.53;;;2.97;93.94
70909;BME280;58554;52.006;5.926;2023-01-26T11:55:54;101643.78;;;3.08;94.30
70909;BME280;58554;52.006;5.926;2023-01-26T11:58:34;101639.19;;;3.26;94.28
70909;BME280;58554;52.006;5.926;2023-01-26T12:01:09;101639.81;;;3.45;94.48
70909;BME280;58554;52.006;5.926;2023-01-26T12:03:45;101641.31;;;3.65;94.43
70909;BME280;58554;52.006;5.926;2023-01-26T12:06:17;101640.19;;;3.81;94.30
70909;BME280;58554;52.006;5.926;2023-01-26T12:08:50;101643.34;;;4.02;93.91
70909;BME280;58554;52.006;5.926;2023-01-26T12:11:27;101634.31;;;4.21;93.83
70909;BME280;58554;52.006;5.926;2023-01-26T12:14:06;101635.69;;;4.42;93.79
70909;BME280;58554;52.006;5.926;2023-01-26T12:16:56;101625.75;;;4.60;93.30
70909;BME280;58554;52.006;5.926;2023-01-26T12:19:39;101626.31;;;4.77;93.02
70909;BME280;58554;52.006;5.926;2023-01-26T12:22:18;101612.94;;;4.91;93.27
70909;BME280;58554;52.006;5.926;2023-01-26T12:24:53;101613.53;;;5.07;92.86
70909;BME280;58554;52.006;5.926;2023-01-26T12:27:30;101606.13;;;5.26;93.06
70909;BME280;58554;52.006;5.926;2023-01-26T12:30:11;101610.16;;;5.80;94.27
70909;BME280;58554;52.006;5.926;2023-01-26T12:32:49;101592.88;;;6.40;93.55
70909;BME280;58554;52.006;5.926;2023-01-26T12:35:26;101580.81;;;6.95;92.79
70909;BME280;58554;52.006;5.926;2023-01-26T12:38:07;101581.25;;;7.11;89.60
70909;BME280;58554;52.006;5.926;2023-01-26T12:40:44;101578.19;;;7.25;90.53
70909;BME280;58554;52.006;5.926;2023-01-26T12:43:35;101581.25;;;7.41;88.49
70909;BME280;58554;52.006;5.926;2023-01-26T12:46:15;101580.59;;;7.32;88.32
70909;BME280;58554;52.006;5.926;2023-01-26T12:48:45;101581.78;;;7.22;87.99
70909;BME280;58554;52.006;5.926;2023-01-26T12:51:20;101567.50;;;7.01;87.47
70909;BME280;58554;52.006;5.926;2023-01-26T12:53:56;101566.19;;;6.86;87.90
70909;BME280;58554;52.006;5.926;2023-01-26T12:56:31;101573.56;;;7.03;89.38
70909;BME280;58554;52.006;5.926;2023-01-26T12:59:13;101570.72;;;7.11;88.47
70909;BME280;58554;52.006;5.926;2023-01-26T13:01:54;101563.22;;;6.97;88.10
70909;BME280;58554;52.006;5.926;2023-01-26T13:04:22;101562.84;;;6.81;88.02
70909;BME280;58554;52.006;5.926;2023-01-26T13:07:01;101573.88;;;6.63;88.02
70909;BME280;58554;52.006;5.926;2023-01-26T13:09:29;101563.72;;;6.49;88.84
70909;BME280;58554;52.006;5.926;2023-01-26T13:11:56;101558.63;;;6.76;90.42
70909;BME280;58554;52.006;5.926;2023-01-26T13:14:32;101564.03;;;7.29;90.97